createdAt,value
2019-04-21T00:03:35.511Z,30.20
2019-04-21T00:09:00.923Z,29.53
2019-04-21T00:13:59.412Z,24.63
2019-04-21T00:18:59.931Z,24.60
2019-04-21T00:24:24.867Z,26.27
2019-04-21T00:29:38.580Z,27.57
2019-04-21T00:34:23.964Z,28.13
2019-04-21T00:39:58.770Z,31.70
2019-04-21T00:44:54.236Z,28.83
2019-04-21T00:50:25.115Z,25.80
2019-04-21T01:00:40.700Z,26.50
2019-04-21T01:05:53.084Z,25.80
2019-04-21T01:10:49.267Z,27.90
2019-04-21T01:16:05.853Z,27.20
2019-04-21T01:20:46.778Z,24.67
2019-04-21T01:26:06.594Z,24.77
2019-04-21T01:31:37.638Z,29.47
2019-04-21T01:36:45.567Z,28.27
2019-04-21T01:42:00.070Z,28.50
2019-04-21T01:46:54.524Z,27.77
2019-04-21T01:57:39.421Z,27.60
2019-04-21T02:02:54.927Z,28.77
2019-04-21T02:07:55.154Z,26.20
2019-04-21T02:13:03.232Z,29.73
2019-04-21T02:18:08.970Z,27.80
2019-04-21T02:23:31.549Z,25.47
2019-04-21T02:28:29.813Z,26.13
2019-04-21T02:33:53.067Z,27.57
2019-04-21T02:39:08.233Z,28.77
2019-04-21T02:44:00.616Z,29.40
2019-04-21T03:10:26.243Z,28.47
2019-04-21T03:20:35.739Z,25.93
2019-04-21T03:40:57.812Z,30.30
2019-04-21T03:46:08.583Z,32.07
2019-04-21T03:51:27.629Z,30.60
2019-04-21T03:56:27.770Z,38.47
2019-04-21T04:01:32.873Z,39.30
2019-04-21T04:12:26.334Z,28.00
2019-04-21T04:17:23.982Z,26.67
2019-04-21T04:22:31.387Z,26.47
2019-04-21T04:27:48.740Z,28.30
2019-04-21T04:32:42.526Z,32.33
2019-04-21T04:48:11.187Z,31.30
2019-04-21T04:53:34.673Z,35.57
2019-04-21T04:58:29.761Z,47.20
2019-04-21T05:03:52.683Z,47.57
2019-04-21T05:08:52.986Z,43.87
2019-04-21T05:13:55.373Z,55.20
2019-04-21T05:19:06.538Z,54.17
2019-04-21T05:23:52.546Z,49.17
2019-04-21T05:28:50.893Z,43.83
2019-04-21T05:34:09.547Z,43.27
2019-04-21T05:39:14.780Z,37.53
2019-04-21T05:44:27.989Z,37.63
2019-04-21T05:49:34.058Z,32.67
2019-04-21T05:54:44.230Z,34.13
2019-04-21T05:59:49.100Z,32.83
2019-04-21T06:10:16.938Z,30.90
2019-04-21T06:15:12.268Z,25.60
2019-04-21T06:20:35.180Z,31.50
2019-04-21T06:25:48.686Z,23.90
2019-04-21T06:30:59.284Z,25.97
2019-04-21T06:36:31.965Z,27.00
2019-04-21T06:51:43.544Z,25.07
2019-04-21T06:56:51.712Z,24.20
2019-04-21T07:02:13.469Z,22.73
2019-04-21T07:07:05.204Z,24.07
2019-04-21T07:12:06.173Z,21.90
2019-04-21T07:17:24.249Z,19.73
2019-04-21T07:27:35.424Z,18.13
2019-04-21T07:32:42.813Z,13.93
2019-04-21T07:37:50.616Z,16.17
2019-04-21T07:42:49.806Z,11.23
2019-04-21T07:48:02.083Z,11.30
2019-04-21T07:53:14.189Z,10.50
2019-04-21T07:58:14.578Z,9.37
2019-04-21T08:03:28.446Z,12.47
2019-04-21T08:08:36.778Z,11.40
2019-04-21T08:13:44.980Z,9.23
2019-04-21T08:18:46.780Z,11.30
2019-04-21T08:23:58.252Z,8.53
2019-04-21T08:29:13.392Z,7.07
2019-04-21T08:34:13.875Z,8.80
2019-04-21T08:39:13.209Z,8.03
2019-04-21T08:44:25.806Z,7.17
2019-04-21T08:49:26.528Z,16.07
2019-04-21T08:54:42.645Z,10.13
2019-04-21T09:00:06.899Z,8.70
2019-04-21T09:05:15.404Z,11.27
2019-04-21T09:10:17.665Z,11.20
2019-04-21T09:15:25.222Z,7.67
2019-04-21T09:20:38.755Z,8.63
2019-04-21T09:30:30.728Z,7.23
2019-04-21T09:35:40.597Z,6.83
2019-04-21T09:40:49.042Z,7.80
2019-04-21T09:45:51.956Z,10.50
2019-04-21T09:50:58.175Z,10.17
2019-04-21T09:56:10.454Z,8.40
2019-04-21T10:01:20.329Z,15.47
2019-04-21T10:06:19.577Z,10.07
2019-04-21T10:11:26.722Z,9.00
2019-04-21T10:16:34.290Z,11.83
2019-04-21T10:21:40.281Z,7.63
2019-04-21T10:26:47.098Z,8.83
2019-04-21T10:31:52.493Z,9.63
2019-04-21T10:36:58.581Z,8.67
2019-04-21T10:42:04.079Z,7.10
2019-04-21T10:47:10.854Z,17.90
2019-04-21T10:52:17.564Z,8.10
2019-04-21T10:57:33.176Z,8.53
2019-04-21T11:02:43.315Z,9.70
2019-04-21T11:08:02.479Z,10.97
2019-04-21T11:12:58.620Z,7.47
2019-04-21T11:18:04.029Z,10.73
2019-04-21T11:23:10.143Z,4.40
2019-04-21T11:28:16.623Z,8.37
2019-04-21T11:33:22.790Z,13.37
2019-04-21T11:39:05.614Z,6.70
2019-04-21T11:43:53.145Z,3.80
2019-04-21T11:49:00.054Z,3.67
2019-04-21T11:54:06.700Z,3.47
2019-04-21T11:59:12.255Z,4.43
2019-04-21T12:04:17.959Z,5.60
2019-04-21T12:09:25.019Z,6.67
2019-04-21T12:14:30.310Z,8.03
2019-04-21T12:19:36.650Z,22.40
2019-04-21T12:24:43.002Z,3.33
2019-04-21T12:29:49.402Z,3.23
2019-04-21T12:34:57.809Z,6.40
2019-04-21T12:40:03.429Z,11.97
2019-04-21T12:45:09.785Z,17.07
2019-04-21T12:50:16.939Z,8.00
2019-04-21T12:55:26.176Z,6.10
2019-04-21T13:00:29.077Z,3.87
2019-04-21T13:05:35.687Z,5.20
2019-04-21T13:10:42.179Z,44.13
2019-04-21T13:15:51.673Z,3.57
2019-04-21T13:20:59.347Z,4.80
2019-04-21T13:26:04.983Z,4.83
2019-04-21T13:31:11.951Z,9.50
2019-04-21T13:36:18.157Z,14.90
2019-04-21T13:41:36.464Z,5.53
2019-04-21T13:46:31.088Z,5.03
2019-04-21T13:51:36.352Z,3.13
2019-04-21T13:56:42.564Z,9.50
2019-04-21T14:01:48.115Z,7.57
2019-04-21T14:06:54.210Z,3.63
2019-04-21T14:12:01.271Z,5.97
2019-04-21T14:17:07.114Z,22.07
2019-04-21T14:22:14.128Z,4.80
2019-04-21T14:27:20.394Z,5.07
2019-04-21T14:32:26.514Z,5.60
2019-04-21T14:37:32.883Z,5.47
2019-04-21T14:42:40.207Z,3.70
2019-04-21T14:47:54.241Z,4.23
2019-04-21T14:53:16.114Z,6.23
2019-04-21T14:58:21.461Z,6.47
2019-04-21T15:03:27.824Z,5.53
2019-04-21T15:08:33.455Z,4.27
2019-04-21T15:13:39.706Z,5.17
2019-04-21T15:18:46.455Z,2.97
2019-04-21T15:23:52.325Z,5.07
2019-04-21T15:28:57.501Z,5.10
2019-04-21T15:34:03.258Z,7.80
2019-04-21T15:39:09.984Z,3.93
2019-04-21T15:44:16.558Z,9.47
2019-04-21T15:49:23.090Z,3.50
2019-04-21T15:54:28.948Z,13.20
2019-04-21T15:59:36.747Z,5.07
2019-04-21T16:04:42.920Z,5.53
2019-04-21T16:09:48.477Z,6.47
2019-04-21T16:14:54.499Z,4.90
2019-04-21T16:19:59.733Z,8.57
2019-04-21T16:25:10.739Z,7.03
2019-04-21T16:30:17.668Z,6.22
2019-04-21T16:35:23.498Z,6.43
2019-04-21T16:40:41.347Z,11.93
2019-04-21T16:45:37.046Z,6.13
2019-04-21T16:50:43.512Z,4.83
2019-04-21T16:56:08.958Z,33.47
2019-04-21T17:01:20.222Z,9.13
2019-04-21T17:06:26.922Z,6.77
2019-04-21T17:11:35.332Z,10.07
2019-04-21T17:17:13.932Z,6.73
2019-04-21T17:21:45.834Z,14.77
2019-04-21T17:26:51.440Z,7.93
2019-04-21T17:31:57.381Z,6.67
2019-04-21T17:37:03.510Z,9.67
2019-04-21T17:42:18.118Z,5.40
2019-04-21T17:47:27.077Z,7.40
2019-04-21T17:52:50.465Z,7.43
2019-04-21T17:58:05.159Z,9.50
2019-04-21T18:03:27.666Z,9.20
2019-04-21T18:08:23.187Z,6.17
2019-04-21T18:13:32.614Z,34.03
2019-04-21T18:18:39.082Z,12.53
2019-04-21T18:23:54.789Z,19.37
2019-04-21T18:28:55.303Z,6.87
2019-04-21T18:34:04.974Z,11.23
2019-04-21T18:45:40.284Z,12.00
2019-04-21T18:50:37.067Z,6.63
2019-04-21T18:55:41.897Z,24.97
2019-04-21T19:00:45.308Z,7.47
2019-04-21T19:05:54.427Z,7.43
2019-04-21T19:11:15.161Z,7.57
2019-04-21T19:16:33.049Z,8.23
2019-04-21T19:21:24.514Z,8.30
2019-04-21T19:31:46.326Z,12.03
2019-04-21T19:36:32.541Z,12.57
2019-04-21T19:41:52.084Z,11.80
2019-04-21T19:47:03.921Z,14.10
2019-04-21T19:51:59.613Z,16.43
2019-04-21T19:56:58.688Z,17.53
2019-04-21T20:02:06.944Z,15.00
2019-04-21T20:07:28.307Z,17.97
2019-04-21T20:12:40.127Z,22.17
2019-04-21T20:17:42.190Z,23.97
2019-04-21T20:22:38.327Z,20.43
2019-04-21T20:27:49.474Z,26.93
2019-04-21T20:33:05.635Z,22.03
2019-04-21T20:38:09.245Z,20.30
2019-04-21T20:43:17.686Z,20.17
2019-04-21T20:48:18.021Z,20.43
2019-04-21T20:53:33.027Z,23.50
2019-04-21T20:58:34.275Z,27.33
2019-04-21T21:03:46.515Z,23.37
2019-04-21T21:09:11.506Z,22.97
2019-04-21T21:14:16.135Z,23.10
2019-04-21T21:19:30.167Z,24.83
2019-04-21T21:24:38.801Z,25.33
2019-04-21T21:29:33.623Z,27.67
2019-04-21T21:34:47.471Z,23.30
2019-04-21T21:39:57.123Z,25.90
2019-04-21T21:44:50.556Z,24.60
2019-04-21T21:50:00.806Z,26.23
2019-04-21T21:54:55.792Z,24.77
2019-04-21T22:00:04.732Z,23.63
2019-04-21T22:05:14.319Z,23.93
2019-04-21T22:10:16.076Z,24.17
2019-04-21T22:15:24.908Z,27.30
2019-04-21T22:20:42.103Z,28.63
2019-04-21T22:25:38.882Z,25.47
2019-04-21T22:30:46.454Z,31.57
2019-04-21T22:36:21.977Z,27.63
2019-04-21T22:41:40.627Z,29.10
2019-04-21T22:46:53.002Z,34.43
2019-04-21T22:51:51.747Z,28.67
2019-04-21T22:57:02.609Z,32.13
2019-04-21T23:02:05.322Z,34.60
2019-04-21T23:07:28.246Z,32.10
2019-04-21T23:12:38.193Z,35.37
2019-04-21T23:18:00.802Z,32.77
2019-04-21T23:23:14.637Z,36.07
2019-04-21T23:28:11.611Z,27.27
2019-04-21T23:33:06.479Z,29.87
2019-04-21T23:38:10.529Z,31.90
2019-04-21T23:43:19.425Z,32.50
2019-04-21T23:48:32.483Z,32.57
2019-04-21T23:53:47.310Z,35.03
2019-04-21T23:58:59.841Z,30.30
